Main page
METAR-TAF:

METAR-TAF

Airports :

Town MET

Windhoek, Namibia

latitude: 22-34S, longitude: 017-06E, elevation: 1725 m

Current weather observation

The report was made 27 minutes ago, at 04:00 UTC
Wind 1 kt from the South/Southwest
Temperature 18°C
Humidity 39%
Pressure 1019 hPa

METAR: FYWW 240400Z AUTO 20001KT //// // ////// 18/04 Q1019

Time: 06:27 (04:27 UTC)


TAF: missing

Weather observations and forecasts of more than 4000 airports (METAR and TAF reports).

The available stations are represented by yellow and red dots on the map.

Hover mouse over dot to see the name of the station.

Then click to see weather observations and forecasts.

To change the map : click on the green buttons with a black cross to zoom in, on the green button with a dash to zoom out, or on the green arrows for adjacent maps.


METAR-TAF: